Mount Buller, Australia
Current Conditions -  °F | °C
As of 7:31 AM on Saturday 25 Oct 2014 (Local Time) from YMAY Reporting Station
Clear Clear  
Wind Chill: 59°   Ceiling: Unl
Heat Index: 59°   Visibility: 5mi
Dew Point: 52°   Wind: 0mph
Humidity: 77%   Direction: NA
Pressure: 29.97"   Gusts: NA
Location:  37.15°S, 146.45°E
Report Text: YMAY 242031Z AUTO 00000KT 8000 // NCD 15/11 Q1015
Loading
Personal Weather Stations






























Interactive Weather Map
Tropical Storm Tracking
New forecast layout! Learn more

10-Day Weather Forecast

Advertisements
Track Severe Weather on mobile